createdAt,value
2019-03-03T00:00:46.712Z,0.00
2019-03-03T00:01:46.661Z,0.00
2019-03-03T00:02:46.667Z,0.00
2019-03-03T00:03:46.636Z,0.00
2019-03-03T00:04:46.630Z,0.00
2019-03-03T00:05:46.615Z,0.00
2019-03-03T00:06:46.624Z,0.00
2019-03-03T00:07:46.600Z,0.00
2019-03-03T00:08:46.579Z,0.00
2019-03-03T00:09:46.577Z,0.00
2019-03-03T00:10:46.554Z,0.00
2019-03-03T00:11:46.574Z,0.00
2019-03-03T00:12:46.551Z,0.00
2019-03-03T00:13:46.531Z,0.00
2019-03-03T00:14:46.515Z,0.00
2019-03-03T00:15:46.505Z,0.00
2019-03-03T00:16:46.490Z,0.00
2019-03-03T00:17:46.509Z,0.00
2019-03-03T00:18:47.380Z,0.00
2019-03-03T00:19:46.459Z,0.00
2019-03-03T00:20:46.469Z,0.00
2019-03-03T00:21:46.482Z,0.00
2019-03-03T00:22:46.456Z,0.00
2019-03-03T00:23:46.435Z,0.00
2019-03-03T00:24:46.404Z,0.00
2019-03-03T00:25:46.390Z,0.00
2019-03-03T00:26:46.399Z,0.00
2019-03-03T00:27:46.377Z,0.00
2019-03-03T00:28:46.392Z,0.00
2019-03-03T00:29:46.353Z,0.00
2019-03-03T00:30:46.341Z,0.00
2019-03-03T00:31:46.335Z,0.00
2019-03-03T00:32:46.309Z,0.00
2019-03-03T00:33:46.302Z,0.00
2019-03-03T00:34:46.348Z,0.00
2019-03-03T00:35:46.288Z,0.00
2019-03-03T00:36:46.270Z,0.00
2019-03-03T00:37:46.385Z,0.00
2019-03-03T00:38:46.265Z,0.00
2019-03-03T00:39:46.241Z,0.00
2019-03-03T00:40:46.270Z,0.00
2019-03-03T00:41:46.219Z,0.00
2019-03-03T00:42:46.205Z,0.00
2019-03-03T00:43:46.204Z,0.00
2019-03-03T00:44:46.190Z,0.00
2019-03-03T00:45:46.200Z,0.00
2019-03-03T00:46:46.182Z,0.00
2019-03-03T00:47:46.184Z,0.00
2019-03-03T00:48:46.171Z,0.00
2019-03-03T00:49:46.143Z,0.00
2019-03-03T00:50:46.149Z,0.00
2019-03-03T00:51:46.102Z,0.00
2019-03-03T00:52:46.096Z,0.00
2019-03-03T00:53:46.131Z,0.00
2019-03-03T00:54:46.090Z,0.00
2019-03-03T00:55:46.064Z,0.00
2019-03-03T00:56:46.099Z,0.00
2019-03-03T00:57:46.040Z,0.00
2019-03-03T00:58:46.183Z,0.00
2019-03-03T00:59:46.017Z,0.00
2019-03-03T01:00:46.008Z,0.00
2019-03-03T01:01:46.146Z,0.00
2019-03-03T01:02:46.001Z,0.00
2019-03-03T01:03:45.995Z,0.00
2019-03-03T01:04:45.993Z,0.00
2019-03-03T01:05:45.950Z,0.00
2019-03-03T01:06:45.941Z,0.00
2019-03-03T01:07:45.923Z,0.00
2019-03-03T01:08:45.928Z,0.00
2019-03-03T01:09:45.912Z,0.00
2019-03-03T01:10:45.933Z,0.00
2019-03-03T01:11:45.886Z,0.00
2019-03-03T01:12:45.875Z,0.00
2019-03-03T01:13:45.867Z,0.00
2019-03-03T01:14:45.898Z,0.00
2019-03-03T01:15:45.840Z,0.00
2019-03-03T01:16:45.827Z,0.00
2019-03-03T01:17:45.963Z,0.00
2019-03-03T01:18:45.804Z,0.00
2019-03-03T01:19:45.841Z,0.00
2019-03-03T01:20:45.809Z,0.00
2019-03-03T01:21:45.784Z,0.00
2019-03-03T01:22:45.770Z,0.00
2019-03-03T01:23:45.756Z,0.00
2019-03-03T01:24:45.749Z,0.00
2019-03-03T01:25:45.766Z,0.00
2019-03-03T01:26:45.750Z,0.00
2019-03-03T01:27:45.706Z,0.00
2019-03-03T01:28:45.697Z,0.00
2019-03-03T01:29:45.689Z,0.00
2019-03-03T01:30:45.698Z,0.00
2019-03-03T01:31:45.687Z,0.00
2019-03-03T01:32:45.702Z,0.00
2019-03-03T01:33:45.649Z,0.00
2019-03-03T01:34:45.638Z,0.00
2019-03-03T01:35:45.631Z,0.00
2019-03-03T01:36:45.613Z,0.00
2019-03-03T01:37:45.625Z,0.00
2019-03-03T01:38:45.590Z,0.00
2019-03-03T01:39:45.584Z,0.00
2019-03-03T01:40:45.567Z,0.00
2019-03-03T01:41:45.591Z,0.00
2019-03-03T01:42:45.544Z,0.00
2019-03-03T01:43:45.559Z,0.00
2019-03-03T01:44:45.537Z,0.00
2019-03-03T01:45:45.521Z,0.00
2019-03-03T01:46:45.503Z,0.00
2019-03-03T01:47:45.505Z,0.00
2019-03-03T01:48:45.505Z,0.00
2019-03-03T01:49:45.471Z,0.00
2019-03-03T01:50:45.465Z,0.00
2019-03-03T01:51:45.455Z,0.00
2019-03-03T01:52:45.433Z,0.00
2019-03-03T01:53:45.445Z,0.00
2019-03-03T01:54:45.412Z,0.00
2019-03-03T01:55:45.403Z,0.00
2019-03-03T01:56:45.394Z,0.00
2019-03-03T01:57:45.380Z,0.00
2019-03-03T01:58:45.396Z,0.00
2019-03-03T01:59:45.361Z,0.00
2019-03-03T02:00:45.444Z,0.00
2019-03-03T02:01:45.390Z,0.00
2019-03-03T02:02:45.321Z,0.00
2019-03-03T02:03:45.395Z,0.00
2019-03-03T02:04:45.310Z,0.00
2019-03-03T02:05:45.291Z,0.00
2019-03-03T02:06:45.305Z,0.00
2019-03-03T02:07:45.269Z,0.00
2019-03-03T02:08:45.263Z,0.00
2019-03-03T02:09:45.254Z,0.00
2019-03-03T02:10:45.281Z,0.00
2019-03-03T02:11:45.229Z,0.00
2019-03-03T02:12:45.254Z,0.00
2019-03-03T02:13:45.218Z,0.00
2019-03-03T02:14:45.227Z,0.00
2019-03-03T02:15:45.184Z,0.00
2019-03-03T02:16:45.169Z,0.00
2019-03-03T02:17:45.213Z,0.00
2019-03-03T02:18:45.161Z,0.00
2019-03-03T02:19:45.144Z,0.00
2019-03-03T02:20:45.141Z,0.00
2019-03-03T02:21:45.122Z,0.00
2019-03-03T02:22:45.109Z,0.00
2019-03-03T02:23:45.126Z,0.00
2019-03-03T02:24:45.086Z,0.00
2019-03-03T02:25:45.074Z,0.00
2019-03-03T02:26:45.072Z,0.00
2019-03-03T02:27:45.906Z,0.00
2019-03-03T02:28:45.072Z,0.00
2019-03-03T02:29:45.032Z,0.00
2019-03-03T02:30:45.043Z,0.00
2019-03-03T02:31:45.041Z,0.00
2019-03-03T02:32:44.997Z,0.00
2019-03-03T02:33:45.000Z,0.00
2019-03-03T02:34:45.002Z,0.00
2019-03-03T02:35:44.975Z,0.00
2019-03-03T02:36:44.952Z,0.00
2019-03-03T02:37:44.949Z,0.00
2019-03-03T02:38:44.939Z,0.00
2019-03-03T02:39:44.927Z,0.00
2019-03-03T02:40:44.935Z,0.00
2019-03-03T02:41:44.931Z,0.00
2019-03-03T02:42:44.888Z,0.00
2019-03-03T02:43:44.897Z,0.00
2019-03-03T02:44:44.930Z,0.00
2019-03-03T02:45:44.864Z,0.00
2019-03-03T02:46:44.870Z,0.00
2019-03-03T02:47:44.827Z,0.00
2019-03-03T02:48:44.823Z,0.00
2019-03-03T02:49:44.823Z,0.00
2019-03-03T02:50:44.804Z,0.00
2019-03-03T02:51:44.810Z,0.00
2019-03-03T02:52:44.777Z,0.00
2019-03-03T02:53:44.770Z,0.00
2019-03-03T02:54:44.753Z,0.00
2019-03-03T02:55:44.744Z,0.00
2019-03-03T02:56:44.769Z,0.00
2019-03-03T02:57:44.722Z,0.00
2019-03-03T02:58:44.747Z,0.00
2019-03-03T02:59:44.698Z,0.00
2019-03-03T03:00:44.689Z,0.00
2019-03-03T03:01:44.681Z,0.00
2019-03-03T03:02:44.709Z,0.00
2019-03-03T03:03:44.664Z,0.00
2019-03-03T03:04:44.651Z,0.00
2019-03-03T03:05:44.631Z,0.00
2019-03-03T03:06:44.627Z,0.00
2019-03-03T03:07:44.614Z,0.00
2019-03-03T03:08:44.636Z,0.00
2019-03-03T03:09:44.601Z,0.00
2019-03-03T03:10:44.616Z,0.00
2019-03-03T03:11:44.573Z,0.00
2019-03-03T03:12:44.573Z,0.00
2019-03-03T03:13:44.549Z,0.00
2019-03-03T03:14:44.566Z,0.00
2019-03-03T03:15:44.534Z,0.00
2019-03-03T03:16:44.522Z,0.00
2019-03-03T03:17:44.506Z,0.00
2019-03-03T03:18:44.515Z,0.00
2019-03-03T03:19:44.491Z,0.00
2019-03-03T03:20:44.492Z,0.00
2019-03-03T03:21:44.471Z,0.00
2019-03-03T03:22:44.461Z,0.00
2019-03-03T03:23:44.442Z,0.00
2019-03-03T03:24:44.449Z,0.00
2019-03-03T03:25:44.448Z,0.00
2019-03-03T03:26:44.453Z,0.00
2019-03-03T03:27:44.398Z,0.00
2019-03-03T03:28:44.383Z,0.00
2019-03-03T03:29:44.369Z,0.00
2019-03-03T03:30:44.382Z,0.00
2019-03-03T03:31:44.358Z,0.00
2019-03-03T03:32:44.413Z,0.00
2019-03-03T03:33:44.331Z,0.00
2019-03-03T03:34:44.321Z,0.00
2019-03-03T03:35:44.328Z,0.00
2019-03-03T03:36:44.299Z,0.00
2019-03-03T03:37:44.303Z,0.00
2019-03-03T03:38:44.270Z,0.00
2019-03-03T03:39:44.265Z,0.00
2019-03-03T03:40:44.251Z,0.00
2019-03-03T03:41:44.245Z,0.00
2019-03-03T03:42:44.313Z,0.00
2019-03-03T03:43:44.246Z,0.00
2019-03-03T03:44:44.207Z,0.00
2019-03-03T03:45:44.204Z,0.00
2019-03-03T03:46:44.194Z,0.00
2019-03-03T03:47:44.205Z,0.00
2019-03-03T03:48:44.172Z,0.00
2019-03-03T03:49:44.183Z,0.00
2019-03-03T03:50:44.213Z,0.00
2019-03-03T03:51:44.137Z,0.00
2019-03-03T03:52:44.125Z,0.00
2019-03-03T03:53:44.163Z,0.00
2019-03-03T03:54:44.096Z,0.00
2019-03-03T03:55:44.098Z,0.00
2019-03-03T03:56:44.113Z,0.00
2019-03-03T03:57:44.066Z,0.00
2019-03-03T03:58:44.053Z,0.00
2019-03-03T03:59:44.038Z,0.00
2019-03-03T04:00:44.076Z,0.00
2019-03-03T04:01:44.048Z,0.00
2019-03-03T04:02:44.012Z,0.00
2019-03-03T04:03:44.005Z,0.00
2019-03-03T04:04:43.989Z,0.00
2019-03-03T04:05:43.982Z,0.00
2019-03-03T04:06:44.083Z,0.00
2019-03-03T04:07:43.956Z,0.00
2019-03-03T04:08:43.957Z,0.00
2019-03-03T04:09:43.942Z,0.00
2019-03-03T04:10:43.941Z,0.00
2019-03-03T04:11:43.932Z,0.00
2019-03-03T04:12:43.898Z,0.00
2019-03-03T04:13:43.895Z,0.00
2019-03-03T04:14:43.879Z,0.00
2019-03-03T04:15:43.865Z,0.00
2019-03-03T04:16:43.884Z,0.00
2019-03-03T04:17:43.850Z,0.00
2019-03-03T04:18:43.837Z,0.00
2019-03-03T04:19:43.818Z,0.00
2019-03-03T04:20:43.819Z,0.00
2019-03-03T04:21:43.799Z,0.00
2019-03-03T04:22:43.848Z,0.00
2019-03-03T04:23:43.780Z,0.00
2019-03-03T04:24:43.786Z,0.00
2019-03-03T04:25:43.804Z,0.00
2019-03-03T04:26:43.751Z,0.00
2019-03-03T04:27:43.760Z,0.00
2019-03-03T04:28:43.723Z,0.00
2019-03-03T04:29:43.724Z,0.00
2019-03-03T04:30:43.698Z,0.00
2019-03-03T04:31:43.692Z,0.00
2019-03-03T04:32:43.678Z,0.00
2019-03-03T04:33:43.710Z,0.00
2019-03-03T04:34:43.658Z,0.00
2019-03-03T04:35:43.643Z,0.00
2019-03-03T04:36:43.634Z,0.00
2019-03-03T04:37:43.621Z,0.00
2019-03-03T04:38:44.427Z,0.00
2019-03-03T04:39:43.623Z,0.00
2019-03-03T04:40:43.599Z,0.00
2019-03-03T04:41:43.584Z,0.00
2019-03-03T04:42:43.569Z,0.00
2019-03-03T04:43:43.557Z,0.00
2019-03-03T04:44:43.567Z,0.00
2019-03-03T04:45:43.535Z,0.00
2019-03-03T04:46:43.613Z,0.00
2019-03-03T04:47:43.516Z,0.00
2019-03-03T04:48:43.506Z,0.00
2019-03-03T04:49:43.516Z,0.00
2019-03-03T04:50:43.498Z,0.00
2019-03-03T04:51:43.468Z,0.00
2019-03-03T04:52:43.467Z,0.00
2019-03-03T04:53:43.480Z,0.00
2019-03-03T04:54:43.438Z,0.00
2019-03-03T04:55:43.425Z,0.00
2019-03-03T04:56:43.433Z,0.00
2019-03-03T04:57:43.406Z,0.00
2019-03-03T04:58:43.395Z,0.00
2019-03-03T04:59:43.409Z,0.00
2019-03-03T05:00:43.372Z,0.00
2019-03-03T05:01:43.385Z,0.00
2019-03-03T05:02:43.468Z,0.00
2019-03-03T05:03:43.388Z,0.00
2019-03-03T05:04:43.326Z,0.00
2019-03-03T05:05:43.327Z,0.00
2019-03-03T05:06:43.310Z,0.00
2019-03-03T05:07:43.325Z,0.00
2019-03-03T05:08:43.281Z,0.00
2019-03-03T05:09:43.273Z,0.00
2019-03-03T05:10:43.259Z,0.00
2019-03-03T05:11:43.248Z,0.00
2019-03-03T05:12:43.241Z,0.00
2019-03-03T05:13:43.249Z,0.00
2019-03-03T05:14:43.221Z,0.00
2019-03-03T05:15:43.210Z,0.00
2019-03-03T05:16:43.193Z,0.00
2019-03-03T05:17:43.184Z,0.00
2019-03-03T05:18:43.319Z,0.00
2019-03-03T05:19:43.190Z,0.00
2019-03-03T05:20:43.153Z,0.00
2019-03-03T05:21:43.139Z,0.00
2019-03-03T05:22:43.143Z,0.00
2019-03-03T05:23:43.119Z,0.00
2019-03-03T05:24:43.132Z,0.00
2019-03-03T05:25:43.090Z,0.00
2019-03-03T05:26:43.086Z,0.00
2019-03-03T05:27:43.077Z,0.00
2019-03-03T05:28:43.062Z,0.00
2019-03-03T05:29:43.051Z,0.00
2019-03-03T05:30:43.060Z,0.00
2019-03-03T05:31:43.024Z,0.00
2019-03-03T05:32:43.022Z,0.00
2019-03-03T05:33:43.006Z,0.00
2019-03-03T05:34:42.993Z,0.00
2019-03-03T05:35:52.051Z,0.00
2019-03-03T05:36:43.003Z,0.00
2019-03-03T05:37:42.962Z,0.00
2019-03-03T05:38:42.951Z,0.00
2019-03-03T05:39:42.942Z,0.00
2019-03-03T05:40:42.930Z,0.00
2019-03-03T05:41:42.988Z,0.00
2019-03-03T05:42:42.958Z,0.00
2019-03-03T05:43:42.896Z,0.00
2019-03-03T05:44:42.880Z,0.00
2019-03-03T05:45:42.890Z,0.00
2019-03-03T05:46:42.893Z,0.00
2019-03-03T05:47:42.851Z,0.00
2019-03-03T05:48:42.843Z,0.00
2019-03-03T05:49:42.832Z,0.00
2019-03-03T05:50:42.820Z,0.00
2019-03-03T05:51:42.806Z,0.00
2019-03-03T05:52:42.819Z,0.00
2019-03-03T05:53:42.788Z,0.00
2019-03-03T05:54:42.773Z,0.00
2019-03-03T05:55:42.765Z,0.00
2019-03-03T05:56:42.756Z,0.00
2019-03-03T05:57:42.776Z,0.00
2019-03-03T05:58:42.848Z,0.00
2019-03-03T05:59:42.723Z,0.00
2019-03-03T06:00:42.708Z,0.00
2019-03-03T06:01:42.698Z,0.00
2019-03-03T06:02:42.688Z,0.00
2019-03-03T06:03:42.698Z,0.00
2019-03-03T06:04:42.674Z,0.00
2019-03-03T06:05:42.649Z,0.00
2019-03-03T06:06:42.667Z,0.00
2019-03-03T06:07:42.631Z,0.00
2019-03-03T06:08:42.635Z,0.00
2019-03-03T06:09:42.639Z,0.00
2019-03-03T06:10:42.597Z,0.00
2019-03-03T06:11:42.591Z,0.00
2019-03-03T06:12:42.576Z,0.00
2019-03-03T06:13:42.569Z,0.00
2019-03-03T06:14:42.558Z,0.00
2019-03-03T06:15:42.561Z,0.00
2019-03-03T06:16:42.554Z,0.00
2019-03-03T06:17:42.552Z,0.00
2019-03-03T06:18:42.509Z,0.00
2019-03-03T06:19:42.496Z,0.00
2019-03-03T06:20:42.499Z,0.00
2019-03-03T06:21:42.475Z,0.00
2019-03-03T06:22:42.590Z,0.00
2019-03-03T06:23:42.473Z,0.00
2019-03-03T06:24:42.445Z,0.00
2019-03-03T06:25:42.993Z,0.00
2019-03-03T06:26:42.429Z,0.00
2019-03-03T06:27:42.408Z,0.00
2019-03-03T06:28:42.430Z,0.00
2019-03-03T06:29:42.398Z,0.00
2019-03-03T06:30:42.393Z,0.00
2019-03-03T06:31:42.365Z,0.00
2019-03-03T06:32:42.387Z,0.00
2019-03-03T06:33:42.345Z,0.00
2019-03-03T06:34:42.374Z,0.00
2019-03-03T06:35:42.323Z,0.00
2019-03-03T06:36:42.311Z,0.00
2019-03-03T06:37:42.298Z,0.00
2019-03-03T06:38:42.288Z,0.00
2019-03-03T06:39:42.276Z,0.00
2019-03-03T06:40:42.289Z,0.00
2019-03-03T06:41:42.320Z,0.00
2019-03-03T06:42:42.244Z,0.00
2019-03-03T06:43:42.237Z,0.00
2019-03-03T06:44:42.386Z,0.00
2019-03-03T06:45:42.219Z,0.00
2019-03-03T06:46:42.208Z,0.00
2019-03-03T06:47:42.203Z,0.00
2019-03-03T06:48:42.188Z,0.00
2019-03-03T06:49:42.176Z,0.00
2019-03-03T06:50:42.181Z,0.00
2019-03-03T06:51:42.144Z,0.00
2019-03-03T06:52:42.137Z,0.00
2019-03-03T06:53:42.127Z,0.00
2019-03-03T06:54:42.110Z,0.00
2019-03-03T06:55:42.103Z,5.62
2019-03-03T06:56:42.117Z,0.00
2019-03-03T06:57:42.115Z,0.00
2019-03-03T06:58:42.064Z,0.00
2019-03-03T06:59:42.059Z,5.62
2019-03-03T07:00:42.063Z,5.62
2019-03-03T07:01:42.034Z,0.00
2019-03-03T07:02:42.050Z,0.00
2019-03-03T07:03:42.020Z,0.00
2019-03-03T07:04:42.003Z,5.62
2019-03-03T07:05:42.017Z,0.00
2019-03-03T07:06:42.033Z,0.00
2019-03-03T07:07:41.977Z,0.00
2019-03-03T07:08:42.498Z,0.00
2019-03-03T07:09:41.957Z,5.62
2019-03-03T07:10:41.938Z,0.00
2019-03-03T07:11:41.930Z,5.62
2019-03-03T07:12:41.941Z,5.62
2019-03-03T07:13:41.902Z,5.62
2019-03-03T07:14:41.896Z,5.62
2019-03-03T07:15:41.890Z,5.62
2019-03-03T07:16:41.871Z,5.62
2019-03-03T07:17:41.863Z,5.62
2019-03-03T07:18:41.882Z,5.62
2019-03-03T07:19:41.838Z,5.62
2019-03-03T07:20:41.838Z,5.62
2019-03-03T07:21:41.818Z,11.25
2019-03-03T07:22:41.873Z,11.25
2019-03-03T07:23:41.806Z,11.25
2019-03-03T07:24:41.983Z,11.25
2019-03-03T07:25:41.803Z,11.25
2019-03-03T07:26:41.763Z,11.25
2019-03-03T07:27:41.831Z,11.25
2019-03-03T07:28:41.741Z,11.25
2019-03-03T07:29:41.744Z,11.25
2019-03-03T07:30:41.767Z,11.25
2019-03-03T07:31:41.712Z,11.25
2019-03-03T07:32:41.694Z,11.25
2019-03-03T07:33:41.687Z,11.25
2019-03-03T07:34:41.670Z,11.25
2019-03-03T07:35:41.678Z,16.88
2019-03-03T07:36:41.671Z,16.88
2019-03-03T07:37:41.639Z,16.88
2019-03-03T07:38:41.630Z,16.88
2019-03-03T07:39:41.613Z,16.88
2019-03-03T07:40:41.762Z,22.50
2019-03-03T07:41:41.643Z,22.50
2019-03-03T07:42:41.594Z,28.12
2019-03-03T07:43:41.631Z,28.12
2019-03-03T07:44:41.564Z,28.12
2019-03-03T07:45:41.549Z,28.12
2019-03-03T07:46:41.561Z,28.12
2019-03-03T07:47:41.540Z,28.12
2019-03-03T07:48:41.555Z,28.12
2019-03-03T07:49:41.508Z,28.12
2019-03-03T07:50:41.500Z,28.12
2019-03-03T07:51:41.530Z,28.12
2019-03-03T07:52:41.515Z,28.12
2019-03-03T07:53:41.466Z,28.12
2019-03-03T07:54:41.450Z,22.50
2019-03-03T07:55:41.449Z,22.50
2019-03-03T07:56:41.428Z,22.50
2019-03-03T07:57:41.458Z,22.50
2019-03-03T07:58:41.407Z,22.50
2019-03-03T07:59:41.405Z,22.50
2019-03-03T08:00:41.409Z,22.50
2019-03-03T08:01:41.384Z,22.50
2019-03-03T08:02:41.368Z,16.88
2019-03-03T08:03:41.384Z,22.50
2019-03-03T08:04:42.009Z,22.50
2019-03-03T08:05:41.345Z,28.12
2019-03-03T08:06:41.327Z,22.50
2019-03-03T08:07:41.341Z,22.50
2019-03-03T08:08:41.301Z,22.50
2019-03-03T08:09:41.319Z,22.50
2019-03-03T08:10:41.280Z,22.50
2019-03-03T08:11:41.268Z,22.50
2019-03-03T08:12:41.258Z,22.50
2019-03-03T08:13:41.249Z,28.12
2019-03-03T08:14:41.259Z,33.75
2019-03-03T08:15:41.249Z,28.12
2019-03-03T08:16:41.207Z,33.75
2019-03-03T08:17:41.204Z,28.12
2019-03-03T08:18:41.192Z,33.75
2019-03-03T08:19:41.208Z,22.50
2019-03-03T08:20:41.213Z,22.50
2019-03-03T08:21:41.163Z,28.12
2019-03-03T08:22:41.183Z,39.38
2019-03-03T08:23:41.184Z,33.75
2019-03-03T08:24:41.126Z,28.12
2019-03-03T08:25:41.134Z,39.38
2019-03-03T08:26:41.105Z,39.38
2019-03-03T08:27:41.096Z,39.38
2019-03-03T08:28:41.080Z,33.75
2019-03-03T08:29:41.075Z,50.62
2019-03-03T08:30:41.056Z,33.75
2019-03-03T08:31:41.067Z,33.75
2019-03-03T08:32:41.073Z,33.75
2019-03-03T08:33:41.032Z,33.75
2019-03-03T08:34:41.016Z,33.75
2019-03-03T08:35:41.014Z,28.12
2019-03-03T08:36:40.995Z,33.75
2019-03-03T08:37:41.008Z,28.12
2019-03-03T08:38:41.006Z,28.12
2019-03-03T08:39:40.957Z,28.12
2019-03-03T08:40:40.960Z,28.12
2019-03-03T08:41:40.937Z,33.75
2019-03-03T08:42:40.926Z,28.12
2019-03-03T08:43:40.915Z,33.75
2019-03-03T08:44:41.050Z,33.75
2019-03-03T08:45:40.892Z,33.75
2019-03-03T08:46:40.889Z,33.75
2019-03-03T08:47:40.875Z,28.12
2019-03-03T08:48:41.051Z,28.12
2019-03-03T08:49:40.858Z,28.12
2019-03-03T08:50:40.889Z,28.12
2019-03-03T08:51:40.824Z,33.75
2019-03-03T08:52:40.814Z,28.12
2019-03-03T08:53:40.809Z,28.12
2019-03-03T08:54:40.815Z,33.75
2019-03-03T08:55:40.789Z,33.75
2019-03-03T08:56:40.797Z,33.75
2019-03-03T08:57:40.766Z,33.75
2019-03-03T08:58:40.748Z,28.12
2019-03-03T08:59:40.737Z,22.50
2019-03-03T09:00:40.771Z,22.50
2019-03-03T09:01:40.744Z,28.12
2019-03-03T09:02:40.712Z,28.12
2019-03-03T09:03:40.730Z,28.12
2019-03-03T09:04:40.683Z,28.12
2019-03-03T09:05:40.679Z,22.50
2019-03-03T09:06:40.690Z,28.12
2019-03-03T09:07:40.683Z,33.75
2019-03-03T09:08:40.647Z,33.75
2019-03-03T09:09:40.630Z,39.38
2019-03-03T09:10:40.618Z,28.12
2019-03-03T09:11:40.619Z,28.12
2019-03-03T09:12:40.614Z,28.12
2019-03-03T09:13:40.582Z,22.50
2019-03-03T09:14:40.577Z,22.50
2019-03-03T09:15:40.556Z,28.12
2019-03-03T09:16:40.583Z,33.75
2019-03-03T09:17:40.541Z,28.12
2019-03-03T09:18:40.522Z,33.75
2019-03-03T09:19:40.513Z,33.75
2019-03-03T09:20:40.502Z,39.38
2019-03-03T09:21:40.491Z,39.38
2019-03-03T09:22:40.502Z,45.00
2019-03-03T09:23:40.468Z,39.38
2019-03-03T09:24:40.460Z,50.62
2019-03-03T09:25:40.449Z,45.00
2019-03-03T09:26:40.439Z,39.38
2019-03-03T09:27:40.569Z,39.38
2019-03-03T09:28:40.422Z,39.38
2019-03-03T09:29:40.403Z,33.75
2019-03-03T09:30:40.396Z,33.75
2019-03-03T09:31:40.384Z,39.38
2019-03-03T09:32:40.396Z,39.38
2019-03-03T09:33:40.365Z,39.38
2019-03-03T09:34:40.357Z,33.75
2019-03-03T09:35:40.340Z,33.75
2019-03-03T09:36:40.337Z,28.12
2019-03-03T09:37:40.316Z,39.38
2019-03-03T09:38:40.331Z,33.75
2019-03-03T09:39:40.292Z,39.38
2019-03-03T09:40:40.321Z,39.38
2019-03-03T09:41:40.271Z,33.75
2019-03-03T09:42:40.264Z,33.75
2019-03-03T09:43:41.036Z,33.75
2019-03-03T09:44:40.241Z,33.75
2019-03-03T09:45:40.232Z,33.75
2019-03-03T09:46:40.645Z,39.38
2019-03-03T09:47:40.209Z,39.38
2019-03-03T09:48:40.198Z,39.38
2019-03-03T09:49:40.205Z,50.62
2019-03-03T09:50:40.208Z,45.00
2019-03-03T09:51:40.189Z,33.75
2019-03-03T09:52:40.160Z,50.62
2019-03-03T09:53:40.149Z,39.38
2019-03-03T09:54:40.132Z,33.75
2019-03-03T09:55:40.122Z,39.38
2019-03-03T09:56:40.129Z,33.75
2019-03-03T09:57:40.101Z,33.75
2019-03-03T09:58:40.092Z,33.75
2019-03-03T09:59:40.079Z,33.75
2019-03-03T10:00:40.065Z,39.38
2019-03-03T10:01:40.059Z,39.38
2019-03-03T10:02:41.034Z,39.38
2019-03-03T10:03:40.028Z,39.38
2019-03-03T10:04:40.021Z,45.00
2019-03-03T10:05:40.014Z,50.62
2019-03-03T10:06:39.995Z,61.88
2019-03-03T10:07:39.990Z,61.88
2019-03-03T10:08:40.003Z,56.25
2019-03-03T10:09:39.968Z,45.00
2019-03-03T10:10:40.128Z,33.75
2019-03-03T10:11:39.944Z,39.38
2019-03-03T10:12:39.940Z,39.38
2019-03-03T10:13:39.924Z,33.75
2019-03-03T10:14:39.949Z,39.38
2019-03-03T10:15:39.891Z,39.38
2019-03-03T10:16:39.888Z,50.62
2019-03-03T10:17:39.878Z,50.62
2019-03-03T10:18:39.864Z,45.00
2019-03-03T10:19:39.863Z,45.00
2019-03-03T10:20:39.881Z,50.62
2019-03-03T10:21:39.859Z,39.38
2019-03-03T10:22:39.817Z,33.75
2019-03-03T10:23:39.823Z,33.75
2019-03-03T10:24:39.799Z,33.75
2019-03-03T10:25:39.832Z,28.12
2019-03-03T10:26:39.870Z,22.50
2019-03-03T10:27:39.768Z,22.50
2019-03-03T10:28:39.791Z,22.50
2019-03-03T10:29:39.751Z,39.38
2019-03-03T10:30:39.729Z,28.12
2019-03-03T10:31:39.743Z,33.75
2019-03-03T10:32:39.714Z,33.75
2019-03-03T10:33:39.700Z,33.75
2019-03-03T10:34:39.693Z,39.38
2019-03-03T10:35:39.676Z,39.38
2019-03-03T10:36:39.666Z,45.00
2019-03-03T10:37:39.679Z,45.00
2019-03-03T10:38:39.677Z,50.62
2019-03-03T10:39:39.641Z,50.62
2019-03-03T10:40:39.626Z,50.62
2019-03-03T10:41:39.613Z,61.88
2019-03-03T10:42:39.680Z,61.88
2019-03-03T10:43:39.615Z,67.50
2019-03-03T10:44:39.601Z,67.50
2019-03-03T10:45:39.603Z,73.12
2019-03-03T10:46:39.555Z,67.50
2019-03-03T10:47:39.540Z,73.12
2019-03-03T10:48:39.529Z,73.12
2019-03-03T10:49:39.550Z,73.12
2019-03-03T10:50:39.529Z,67.50
2019-03-03T10:51:39.504Z,84.38
2019-03-03T10:52:39.494Z,73.12
2019-03-03T10:53:39.537Z,84.38
2019-03-03T10:54:39.467Z,73.12
2019-03-03T10:55:39.488Z,73.12
2019-03-03T10:56:39.446Z,78.75
2019-03-03T10:57:39.432Z,84.38
2019-03-03T10:58:39.460Z,78.75
2019-03-03T10:59:39.411Z,56.25
2019-03-03T11:00:39.426Z,45.00
2019-03-03T11:01:39.395Z,56.25
2019-03-03T11:02:39.389Z,50.62
2019-03-03T11:03:39.408Z,56.25
2019-03-03T11:04:39.379Z,56.25
2019-03-03T11:05:39.349Z,39.38
2019-03-03T11:06:39.404Z,45.00
2019-03-03T11:07:39.324Z,61.88
2019-03-03T11:08:39.363Z,73.12
2019-03-03T11:09:39.419Z,84.38
2019-03-03T11:10:39.289Z,78.75
2019-03-03T11:11:39.305Z,84.38
2019-03-03T11:12:39.338Z,56.25
2019-03-03T11:13:39.278Z,67.50
2019-03-03T11:14:39.251Z,61.88
2019-03-03T11:15:39.235Z,56.25
2019-03-03T11:16:39.257Z,45.00
2019-03-03T11:17:39.215Z,45.00
2019-03-03T11:18:39.212Z,39.38
2019-03-03T11:19:39.194Z,50.62
2019-03-03T11:20:39.188Z,45.00
2019-03-03T11:21:39.170Z,56.25
2019-03-03T11:22:39.184Z,50.62
2019-03-03T11:23:39.161Z,50.62
2019-03-03T11:24:39.148Z,56.25
2019-03-03T11:25:39.231Z,73.12
2019-03-03T11:26:39.135Z,73.12
2019-03-03T11:27:39.150Z,73.12
2019-03-03T11:28:39.138Z,84.38
2019-03-03T11:29:39.103Z,73.12
2019-03-03T11:30:39.559Z,78.75
2019-03-03T11:31:39.096Z,90.00
2019-03-03T11:32:39.106Z,90.00
2019-03-03T11:33:39.067Z,123.75
2019-03-03T11:34:39.062Z,106.88
2019-03-03T11:35:39.021Z,118.12
2019-03-03T11:36:39.004Z,101.25
2019-03-03T11:37:39.016Z,118.12
2019-03-03T11:38:38.985Z,118.12
2019-03-03T11:39:39.044Z,123.75
2019-03-03T11:40:38.961Z,123.75
2019-03-03T11:41:38.964Z,129.38
2019-03-03T11:42:38.947Z,112.50
2019-03-03T11:43:38.960Z,78.75
2019-03-03T11:44:38.971Z,95.62
2019-03-03T11:45:38.937Z,84.38
2019-03-03T11:46:38.898Z,73.12
2019-03-03T11:47:38.886Z,61.88
2019-03-03T11:48:38.894Z,67.50
2019-03-03T11:49:38.993Z,67.50
2019-03-03T11:50:38.872Z,56.25
2019-03-03T11:51:38.845Z,67.50
2019-03-03T11:52:38.837Z,61.88
2019-03-03T11:53:38.885Z,45.00
2019-03-03T11:54:38.847Z,67.50
2019-03-03T11:55:38.856Z,56.25
2019-03-03T11:56:38.857Z,45.00
2019-03-03T11:57:38.823Z,45.00
2019-03-03T11:58:38.800Z,61.88
2019-03-03T11:59:38.802Z,61.88
2019-03-03T12:00:38.786Z,67.50
2019-03-03T12:01:38.827Z,84.38
2019-03-03T12:02:38.742Z,67.50
2019-03-03T12:03:38.830Z,61.88
2019-03-03T12:04:38.697Z,61.88
2019-03-03T12:05:38.694Z,61.88
2019-03-03T12:06:38.673Z,56.25
2019-03-03T12:07:38.673Z,50.62
2019-03-03T12:08:38.744Z,50.62
2019-03-03T12:09:38.670Z,56.25
2019-03-03T12:10:38.643Z,61.88
2019-03-03T12:11:38.646Z,50.62
2019-03-03T12:12:38.652Z,50.62
2019-03-03T12:13:38.590Z,61.88
2019-03-03T12:14:38.648Z,56.25
2019-03-03T12:15:38.613Z,67.50
2019-03-03T12:16:38.567Z,61.88
2019-03-03T12:17:38.620Z,67.50
2019-03-03T12:18:38.671Z,50.62
2019-03-03T12:19:38.555Z,61.88
2019-03-03T12:20:38.538Z,61.88
2019-03-03T12:21:38.617Z,61.88
2019-03-03T12:22:38.490Z,50.62
2019-03-03T12:23:38.486Z,56.25
2019-03-03T12:24:38.498Z,67.50
2019-03-03T12:25:38.507Z,56.25
2019-03-03T12:26:38.455Z,56.25
2019-03-03T12:27:38.449Z,56.25
2019-03-03T12:28:38.440Z,56.25
2019-03-03T12:29:38.455Z,61.88
2019-03-03T12:30:38.455Z,67.50
2019-03-03T12:31:38.428Z,61.88
2019-03-03T12:32:38.389Z,45.00
2019-03-03T12:33:38.381Z,45.00
2019-03-03T12:34:38.357Z,50.62
2019-03-03T12:35:38.348Z,45.00
2019-03-03T12:36:38.382Z,39.38
2019-03-03T12:37:38.349Z,50.62
2019-03-03T12:38:38.315Z,50.62
2019-03-03T12:39:38.341Z,45.00
2019-03-03T12:40:38.316Z,45.00
2019-03-03T12:41:38.289Z,33.75
2019-03-03T12:42:38.279Z,39.38
2019-03-03T12:43:38.266Z,45.00
2019-03-03T12:44:38.282Z,50.62
2019-03-03T12:45:38.341Z,39.38
2019-03-03T12:46:38.236Z,45.00
2019-03-03T12:47:38.221Z,39.38
2019-03-03T12:48:38.280Z,39.38
2019-03-03T12:49:38.188Z,50.62
2019-03-03T12:50:38.179Z,50.62
2019-03-03T12:51:38.175Z,39.38
2019-03-03T12:52:38.160Z,33.75
2019-03-03T12:53:38.149Z,28.12
2019-03-03T12:54:38.177Z,28.12
2019-03-03T12:55:38.139Z,28.12
2019-03-03T12:56:38.130Z,28.12
2019-03-03T12:57:38.113Z,28.12
2019-03-03T12:58:38.102Z,28.12
2019-03-03T12:59:38.081Z,28.12
2019-03-03T13:00:38.118Z,28.12
2019-03-03T13:01:38.056Z,33.75
2019-03-03T13:02:38.054Z,28.12
2019-03-03T13:03:38.036Z,39.38
2019-03-03T13:04:38.019Z,33.75
2019-03-03T13:05:38.015Z,33.75
2019-03-03T13:06:38.045Z,45.00